createdAt,value
2022-08-28T00:00:01.522Z,101266.84
2022-08-28T00:02:28.434Z,101270.47
2022-08-28T00:04:54.930Z,101229.28
2022-08-28T00:07:21.364Z,101319.66
2022-08-28T00:09:47.757Z,101224.97
2022-08-28T00:12:14.491Z,101332.50
2022-08-28T00:14:40.947Z,101294.09
2022-08-28T00:17:07.474Z,101335.59
2022-08-28T00:19:38.445Z,101336.69
2022-08-28T00:22:06.226Z,101274.53
2022-08-28T00:24:33.022Z,101339.91
2022-08-28T00:27:18.613Z,101230.06
2022-08-28T00:29:45.176Z,101273.16
2022-08-28T00:32:11.572Z,101337.31
2022-08-28T00:34:38.750Z,101355.25
2022-08-28T00:37:06.262Z,101318.19
2022-08-28T00:39:32.774Z,101339.72
2022-08-28T00:41:59.241Z,101332.19
2022-08-28T00:44:27.932Z,101361.34
2022-08-28T00:46:56.813Z,101369.88
2022-08-28T00:49:37.511Z,101313.88
2022-08-28T00:52:10.777Z,101357.03
2022-08-28T00:54:45.673Z,101358.00
2022-08-28T00:57:35.533Z,101360.88
2022-08-28T01:00:05.138Z,101367.59
2022-08-28T01:02:31.975Z,101261.56
2022-08-28T01:04:58.537Z,101345.22
2022-08-28T01:07:25.190Z,101354.13
2022-08-28T01:09:54.149Z,101308.88
2022-08-28T01:12:29.641Z,101364.88
2022-08-28T01:14:59.964Z,101382.28
2022-08-28T01:17:30.946Z,101335.63
2022-08-28T01:20:02.925Z,101340.91
2022-08-28T01:22:37.236Z,101396.94
2022-08-28T01:25:07.696Z,101403.50
2022-08-28T01:27:34.289Z,101335.22
2022-08-28T01:30:00.905Z,101216.50
2022-08-28T01:32:35.186Z,101345.38
2022-08-28T01:35:02.693Z,101235.38
2022-08-28T01:37:29.657Z,101360.75
2022-08-28T01:39:56.049Z,101339.47
2022-08-28T01:42:22.826Z,101378.47
2022-08-28T01:44:50.120Z,101302.66
2022-08-28T01:47:16.697Z,101386.97
2022-08-28T01:49:43.641Z,101366.81
2022-08-28T01:52:11.686Z,101292.31
2022-08-28T01:54:38.412Z,101295.94
2022-08-28T01:57:07.989Z,101383.03
2022-08-28T01:59:34.394Z,101363.63
2022-08-28T02:02:01.251Z,101228.28
2022-08-28T02:04:32.273Z,101323.22
2022-08-28T02:06:59.209Z,101312.91
2022-08-28T02:09:25.701Z,101383.78
2022-08-28T02:11:52.693Z,101363.44
2022-08-28T02:14:19.240Z,101393.75
2022-08-28T02:16:45.662Z,101347.38
2022-08-28T02:19:12.253Z,101355.91
2022-08-28T02:21:38.842Z,101403.84
2022-08-28T02:24:05.434Z,101403.94
2022-08-28T02:26:31.935Z,101345.53
2022-08-28T02:28:59.269Z,101309.16
2022-08-28T02:31:26.443Z,101407.34
2022-08-28T02:33:53.272Z,101405.84
2022-08-28T02:36:21.893Z,101367.44
2022-08-28T02:38:48.311Z,101383.25
2022-08-28T02:41:14.782Z,101332.09
2022-08-28T02:43:41.356Z,101413.28
2022-08-28T02:46:08.965Z,101419.94
2022-08-28T02:48:37.498Z,101398.16
2022-08-28T02:51:10.438Z,101425.66
2022-08-28T02:53:37.684Z,101405.75
2022-08-28T02:56:04.971Z,101361.69
2022-08-28T02:58:32.735Z,101431.00
2022-08-28T03:01:01.675Z,101415.16
2022-08-28T03:03:31.065Z,101427.03
2022-08-28T03:05:59.758Z,101428.50
2022-08-28T03:08:27.263Z,101414.56
2022-08-28T03:10:54.444Z,101401.34
2022-08-28T03:13:23.105Z,101398.81
2022-08-28T03:15:55.655Z,101432.81
2022-08-28T03:18:22.473Z,101339.09
2022-08-28T03:20:48.854Z,101437.00
2022-08-28T03:23:27.423Z,101436.53
2022-08-28T03:25:59.681Z,101436.94
2022-08-28T03:28:28.505Z,101439.16
2022-08-28T03:30:55.054Z,101383.03
2022-08-28T03:33:22.220Z,101268.41
2022-08-28T03:35:49.344Z,101372.94
2022-08-28T03:38:16.953Z,101439.28
2022-08-28T03:40:45.301Z,101444.72
2022-08-28T03:43:14.965Z,101340.41
2022-08-28T03:45:41.553Z,101388.97
2022-08-28T03:48:08.576Z,101456.81
2022-08-28T03:50:36.066Z,101399.44
2022-08-28T03:53:02.809Z,101454.53
2022-08-28T03:55:29.357Z,101384.41
2022-08-28T03:57:56.249Z,101291.31
2022-08-28T04:00:22.690Z,101427.19
2022-08-28T04:02:49.052Z,101451.28
2022-08-28T04:05:16.625Z,101436.25
2022-08-28T04:07:42.976Z,101423.59
2022-08-28T04:10:09.810Z,101388.13
2022-08-28T04:12:37.003Z,101468.97
2022-08-28T04:15:04.182Z,101449.06
2022-08-28T04:17:30.872Z,101476.03
2022-08-28T04:19:57.374Z,101324.06
2022-08-28T04:22:23.904Z,101461.44
2022-08-28T04:24:50.352Z,101405.50
2022-08-28T04:27:16.718Z,101416.41
2022-08-28T04:29:43.076Z,101451.47
2022-08-28T04:32:09.734Z,101488.94
2022-08-28T04:34:38.157Z,101486.38
2022-08-28T04:37:05.411Z,101459.50
2022-08-28T04:39:32.512Z,101467.09
2022-08-28T04:41:59.317Z,101493.19
2022-08-28T04:44:25.823Z,101472.72
2022-08-28T04:46:54.160Z,101487.31
2022-08-28T04:49:20.609Z,101362.78
2022-08-28T04:51:47.268Z,101498.66
2022-08-28T04:54:13.612Z,101392.13
2022-08-28T04:56:41.008Z,101358.88
2022-08-28T04:59:07.832Z,101472.09
2022-08-28T05:01:34.358Z,101497.91
2022-08-28T05:04:02.761Z,101468.03
2022-08-28T05:06:31.490Z,101504.50
2022-08-28T05:09:00.802Z,101509.00
2022-08-28T05:11:33.434Z,101501.09
2022-08-28T05:14:04.079Z,101462.75
2022-08-28T05:16:30.533Z,101502.44
2022-08-28T05:19:00.374Z,101508.94
2022-08-28T05:21:28.106Z,101408.94
2022-08-28T05:23:57.453Z,101513.19
2022-08-28T05:26:26.984Z,101356.25
2022-08-28T05:28:56.023Z,101426.03
2022-08-28T05:31:23.631Z,101517.84
2022-08-28T05:33:51.145Z,101511.19
2022-08-28T05:36:19.595Z,101521.19
2022-08-28T05:38:46.182Z,101450.19
2022-08-28T05:41:17.894Z,101437.09
2022-08-28T05:43:44.236Z,101414.88
2022-08-28T05:46:10.709Z,101454.09
2022-08-28T05:48:39.712Z,101512.25
2022-08-28T05:51:12.304Z,101440.88
2022-08-28T05:53:41.416Z,101511.56
2022-08-28T05:56:14.334Z,101520.88
2022-08-28T05:58:41.032Z,101387.63
2022-08-28T06:01:09.220Z,101523.13
2022-08-28T06:03:37.529Z,101480.84
2022-08-28T06:06:04.594Z,101502.13
2022-08-28T06:08:31.729Z,101468.63
2022-08-28T06:10:58.670Z,101426.50
2022-08-28T06:13:25.348Z,101506.28
2022-08-28T06:15:51.756Z,101478.97
2022-08-28T06:18:18.232Z,101528.91
2022-08-28T06:20:46.598Z,101531.81
2022-08-28T06:23:23.716Z,101528.44
2022-08-28T06:25:52.045Z,101508.19
2022-08-28T06:28:21.533Z,101528.97
2022-08-28T06:31:09.172Z,101458.09
2022-08-28T06:33:35.757Z,101516.22
2022-08-28T06:36:04.525Z,101542.69
2022-08-28T06:38:31.225Z,101527.94
2022-08-28T06:40:57.772Z,101464.22
2022-08-28T06:43:28.622Z,101538.88
2022-08-28T06:45:56.783Z,101543.78
2022-08-28T06:48:27.906Z,101543.25
2022-08-28T06:50:55.908Z,101544.50
2022-08-28T06:53:25.753Z,101459.53
2022-08-28T06:56:08.594Z,101538.28
2022-08-28T06:58:37.448Z,101538.28
2022-08-28T07:01:12.518Z,101520.13
2022-08-28T07:03:44.488Z,101535.88
2022-08-28T07:06:13.745Z,101538.06
2022-08-28T07:08:42.594Z,101537.56
2022-08-28T07:11:13.380Z,101528.97
2022-08-28T07:13:41.797Z,101478.19
2022-08-28T07:16:09.488Z,101464.94
2022-08-28T07:18:36.337Z,101547.72
2022-08-28T07:21:02.802Z,101444.06
2022-08-28T07:23:30.933Z,101545.91
2022-08-28T07:25:57.557Z,101550.16
2022-08-28T07:28:24.312Z,101529.19
2022-08-28T07:31:04.065Z,101549.19
2022-08-28T07:33:31.684Z,101515.16
2022-08-28T07:35:59.371Z,101507.72
2022-08-28T07:38:26.734Z,101553.63
2022-08-28T07:40:54.665Z,101551.00
2022-08-28T07:43:40.258Z,101557.47
2022-08-28T07:46:09.479Z,101518.13
2022-08-28T07:48:37.008Z,101507.19
2022-08-28T07:51:04.283Z,101565.53
2022-08-28T07:53:35.782Z,101567.38
2022-08-28T07:56:04.056Z,101563.25
2022-08-28T07:58:30.716Z,101469.41
2022-08-28T08:00:58.219Z,101550.41
2022-08-28T08:03:25.511Z,101462.28
2022-08-28T08:05:57.821Z,101546.56
2022-08-28T08:08:25.372Z,101538.19
2022-08-28T08:11:07.554Z,101520.56
2022-08-28T08:13:40.250Z,101566.56
2022-08-28T08:16:12.582Z,101519.97
2022-08-28T08:18:41.223Z,101536.75
2022-08-28T08:21:12.164Z,101562.25
2022-08-28T08:23:39.112Z,101553.44
2022-08-28T08:26:09.037Z,101547.31
2022-08-28T08:28:37.417Z,101502.34
2022-08-28T08:31:08.559Z,101559.59
2022-08-28T08:33:38.212Z,101574.22
2022-08-28T08:36:06.085Z,101571.91
2022-08-28T08:38:34.116Z,101562.56
2022-08-28T08:41:02.395Z,101498.03
2022-08-28T08:43:31.722Z,101568.22
2022-08-28T08:45:58.377Z,101547.34
2022-08-28T08:48:33.495Z,101553.03
2022-08-28T08:51:06.683Z,101563.28
2022-08-28T08:53:46.078Z,101492.97
2022-08-28T08:56:16.790Z,101555.91
2022-08-28T08:58:51.516Z,101418.28
2022-08-28T09:01:27.186Z,101554.19
2022-08-28T09:04:22.667Z,101561.91
2022-08-28T09:06:51.945Z,101552.78
2022-08-28T09:09:30.210Z,101502.94
2022-08-28T09:11:59.957Z,101561.25
2022-08-28T09:15:05.468Z,101563.31
2022-08-28T09:17:37.382Z,101552.31
2022-08-28T09:20:10.223Z,101592.38
2022-08-28T09:22:37.368Z,101522.28
2022-08-28T09:25:05.970Z,101532.38
2022-08-28T09:27:39.438Z,101556.66
2022-08-28T09:30:09.145Z,101574.81
2022-08-28T09:32:45.005Z,101552.19
2022-08-28T09:35:25.353Z,101567.06
2022-08-28T09:37:51.754Z,101481.69
2022-08-28T09:40:47.674Z,101510.03
2022-08-28T09:43:30.115Z,101531.81
2022-08-28T09:46:03.076Z,101552.53
2022-08-28T09:48:32.738Z,101565.84
2022-08-28T09:51:11.481Z,101471.28
2022-08-28T09:53:56.435Z,101567.69
2022-08-28T09:56:39.257Z,101429.88
2022-08-28T09:59:07.551Z,101572.50
2022-08-28T10:01:45.316Z,101562.38
2022-08-28T10:04:11.871Z,101567.66
2022-08-28T10:06:40.137Z,101547.16
2022-08-28T10:09:14.545Z,101555.38
2022-08-28T10:12:15.807Z,101551.63
2022-08-28T10:15:08.332Z,101563.06
2022-08-28T10:18:05.185Z,101562.00
2022-08-28T10:20:37.380Z,101561.81
2022-08-28T10:23:27.379Z,101565.13
2022-08-28T10:25:58.617Z,101479.00
2022-08-28T10:28:51.250Z,101565.31
2022-08-28T10:31:32.718Z,101575.31
2022-08-28T10:34:11.948Z,101564.63
2022-08-28T10:36:38.445Z,101538.19
2022-08-28T10:39:17.744Z,101578.84
2022-08-28T10:41:54.025Z,101496.63
2022-08-28T10:44:27.622Z,101559.91
2022-08-28T10:46:57.074Z,101567.75
2022-08-28T10:49:33.761Z,101578.53
2022-08-28T10:52:26.365Z,101480.19
2022-08-28T10:55:18.984Z,101489.56
2022-08-28T10:57:53.207Z,101483.59
2022-08-28T11:00:22.970Z,101522.63
2022-08-28T11:02:59.470Z,101566.38
2022-08-28T11:05:31.165Z,101568.34
2022-08-28T11:08:04.140Z,101576.47
2022-08-28T11:10:36.656Z,101574.47
2022-08-28T11:13:06.370Z,101507.19
2022-08-28T11:15:37.056Z,101570.56
2022-08-28T11:18:16.134Z,101569.78
2022-08-28T11:21:03.280Z,101570.19
2022-08-28T11:24:24.527Z,101541.50
2022-08-28T11:27:17.262Z,101562.94
2022-08-28T11:30:00.018Z,101577.19
2022-08-28T11:32:36.802Z,101562.72
2022-08-28T11:35:30.145Z,101538.19
2022-08-28T11:37:58.235Z,101576.00
2022-08-28T11:40:30.601Z,101576.84
2022-08-28T11:43:16.544Z,101573.25
2022-08-28T11:45:45.722Z,101572.88
2022-08-28T11:48:23.062Z,101569.78
2022-08-28T11:51:02.301Z,101571.84
2022-08-28T11:53:50.617Z,101567.94
2022-08-28T11:56:31.848Z,101497.09
2022-08-28T11:59:20.397Z,101578.03
2022-08-28T12:01:49.349Z,101571.38
2022-08-28T12:04:20.294Z,101566.84
2022-08-28T12:07:08.546Z,101573.25
2022-08-28T12:09:49.873Z,101550.03
2022-08-28T12:12:21.980Z,101567.66
2022-08-28T12:14:48.316Z,101565.03
2022-08-28T12:17:14.641Z,101570.34
2022-08-28T12:19:51.251Z,101564.22
2022-08-28T12:22:26.336Z,101561.09
2022-08-28T12:24:57.873Z,101525.84
2022-08-28T12:27:25.336Z,101571.94
2022-08-28T12:29:57.335Z,101572.06
2022-08-28T12:32:41.856Z,101569.44
2022-08-28T12:35:19.365Z,101564.06
2022-08-28T12:37:54.981Z,101563.94
2022-08-28T12:40:24.616Z,101571.50
2022-08-28T12:42:55.280Z,101566.00
2022-08-28T12:45:37.312Z,101549.09
2022-08-28T12:48:21.316Z,101524.16
2022-08-28T12:50:56.032Z,101480.19
2022-08-28T12:53:24.041Z,101541.91
2022-08-28T12:55:51.349Z,101550.78
2022-08-28T12:58:28.914Z,101539.72
2022-08-28T13:01:18.110Z,101505.28
2022-08-28T13:03:54.522Z,101563.81
2022-08-28T13:06:47.490Z,101502.47
2022-08-28T13:09:20.375Z,101557.75
2022-08-28T13:11:50.330Z,101513.47
2022-08-28T13:14:38.448Z,101432.63
2022-08-28T13:17:05.289Z,101552.22
2022-08-28T13:19:33.339Z,101490.50
2022-08-28T13:22:02.572Z,101480.81
2022-08-28T13:24:34.971Z,101550.78
2022-08-28T13:27:04.119Z,101538.59
2022-08-28T13:29:31.633Z,101499.88
2022-08-28T13:32:06.023Z,101488.94
2022-08-28T13:34:35.365Z,101280.00
2022-08-28T13:37:14.653Z,101537.66
2022-08-28T13:39:46.498Z,101517.38
2022-08-28T13:42:16.052Z,101516.88
2022-08-28T13:44:48.598Z,101478.41
2022-08-28T13:47:15.573Z,101537.09
2022-08-28T13:49:42.729Z,101500.34
2022-08-28T13:52:10.141Z,101499.63
2022-08-28T13:54:38.147Z,101425.94
2022-08-28T13:57:09.218Z,101510.47
2022-08-28T13:59:35.604Z,101493.00
2022-08-28T14:02:24.328Z,101461.19
2022-08-28T14:04:50.937Z,101535.06
2022-08-28T14:07:17.409Z,101513.19
2022-08-28T14:09:43.793Z,101454.06
2022-08-28T14:12:11.062Z,101471.63
2022-08-28T14:14:38.825Z,101533.56
2022-08-28T14:17:06.322Z,101525.34
2022-08-28T14:19:32.812Z,101486.50
2022-08-28T14:21:59.501Z,101465.34
2022-08-28T14:24:26.517Z,101532.03
2022-08-28T14:26:53.853Z,101515.13
2022-08-28T14:29:20.306Z,101456.22
2022-08-28T14:31:47.707Z,101502.75
2022-08-28T14:34:16.877Z,101515.53
2022-08-28T14:36:43.918Z,101503.44
2022-08-28T14:39:11.809Z,101526.91
2022-08-28T14:41:43.235Z,101434.28
2022-08-28T14:44:10.046Z,101520.16
2022-08-28T14:46:37.008Z,101521.63
2022-08-28T14:49:09.333Z,101487.00
2022-08-28T14:51:38.111Z,101383.03
2022-08-28T14:54:05.964Z,101521.22
2022-08-28T14:56:32.604Z,101485.47
2022-08-28T14:59:00.644Z,101485.22
2022-08-28T15:01:40.471Z,101468.13
2022-08-28T15:04:12.181Z,101473.78
2022-08-28T15:06:39.820Z,101460.56
2022-08-28T15:09:06.221Z,101403.69
2022-08-28T15:11:32.785Z,101520.63
2022-08-28T15:13:59.174Z,101470.00
2022-08-28T15:16:31.120Z,101530.72
2022-08-28T15:18:59.572Z,101492.75
2022-08-28T15:21:32.724Z,101434.16
2022-08-28T15:24:02.338Z,101541.44
2022-08-28T15:26:29.942Z,101532.53
2022-08-28T15:29:02.126Z,101433.00
2022-08-28T15:31:30.283Z,101460.50
2022-08-28T15:33:56.803Z,101542.91
2022-08-28T15:36:23.962Z,101505.16
2022-08-28T15:39:09.105Z,101406.28
2022-08-28T15:41:36.978Z,101529.94
2022-08-28T15:44:04.182Z,101505.41
2022-08-28T15:46:34.306Z,101463.88
2022-08-28T15:49:04.440Z,101554.59
2022-08-28T15:51:35.726Z,101496.00
2022-08-28T15:54:02.480Z,101522.19
2022-08-28T15:56:28.920Z,101474.56
2022-08-28T15:58:55.375Z,101405.56
2022-08-28T16:01:22.524Z,101510.50
2022-08-28T16:03:49.141Z,101459.50
2022-08-28T16:06:18.213Z,101534.31
2022-08-28T16:08:45.425Z,101502.94
2022-08-28T16:11:16.398Z,101487.00
2022-08-28T16:13:42.836Z,101548.84
2022-08-28T16:16:09.471Z,101495.41
2022-08-28T16:18:35.929Z,101536.41
2022-08-28T16:21:04.951Z,101547.84
2022-08-28T16:23:32.483Z,101520.78
2022-08-28T16:25:59.758Z,101470.06
2022-08-28T16:28:26.133Z,101487.91
2022-08-28T16:30:54.013Z,101539.50
2022-08-28T16:33:22.165Z,101448.00
2022-08-28T16:35:57.031Z,101482.84
2022-08-28T16:38:24.129Z,101551.19
2022-08-28T16:40:50.482Z,101534.56
2022-08-28T16:43:17.085Z,101467.69
2022-08-28T16:45:46.001Z,101549.03
2022-08-28T16:48:14.176Z,101537.03
2022-08-28T16:50:42.451Z,101409.84
2022-08-28T16:53:09.933Z,101542.84
2022-08-28T16:55:37.300Z,101553.63
2022-08-28T16:58:04.273Z,101454.00
2022-08-28T17:00:31.526Z,101539.38
2022-08-28T17:02:58.275Z,101499.75
2022-08-28T17:05:24.910Z,101556.28
2022-08-28T17:07:51.908Z,101496.31
2022-08-28T17:10:22.003Z,101460.88
2022-08-28T17:12:48.479Z,101574.84
2022-08-28T17:15:15.416Z,101507.72
2022-08-28T17:17:42.486Z,101561.75
2022-08-28T17:20:33.710Z,101473.50
2022-08-28T17:23:00.643Z,101505.81
2022-08-28T17:25:27.392Z,101569.44
2022-08-28T17:27:53.824Z,101400.94
2022-08-28T17:30:20.688Z,101523.97
2022-08-28T17:32:47.718Z,101568.09
2022-08-28T17:35:15.268Z,101520.25
2022-08-28T17:37:42.661Z,101553.59
2022-08-28T17:40:13.035Z,101524.78
2022-08-28T17:42:39.620Z,101515.66
2022-08-28T17:45:08.339Z,101573.56
2022-08-28T17:47:35.058Z,101511.47
2022-08-28T17:50:02.504Z,101586.44
2022-08-28T17:52:29.551Z,101560.53
2022-08-28T17:54:56.103Z,101512.16
2022-08-28T17:57:24.137Z,101587.88
2022-08-28T17:59:50.754Z,101559.66
2022-08-28T18:02:17.677Z,101566.72
2022-08-28T18:04:44.264Z,101520.06
2022-08-28T18:07:11.433Z,101598.09
2022-08-28T18:09:37.810Z,101577.50
2022-08-28T18:12:06.282Z,101563.22
2022-08-28T18:14:38.634Z,101567.69
2022-08-28T18:17:05.195Z,101573.97
2022-08-28T18:19:31.938Z,101614.19
2022-08-28T18:21:58.634Z,101468.34
2022-08-28T18:24:25.512Z,101558.59
2022-08-28T18:26:54.060Z,101572.97
2022-08-28T18:29:20.664Z,101589.38
2022-08-28T18:31:47.329Z,101540.34
2022-08-28T18:34:13.887Z,101612.13
2022-08-28T18:36:41.662Z,101634.91
2022-08-28T18:39:13.060Z,101610.41
2022-08-28T18:41:43.547Z,101629.06
2022-08-28T18:44:11.726Z,101537.88
2022-08-28T18:46:38.576Z,101643.22
2022-08-28T18:49:05.218Z,101590.13
2022-08-28T18:51:32.793Z,101669.88
2022-08-28T18:54:02.918Z,101460.91
2022-08-28T18:56:30.376Z,101619.50
2022-08-28T18:58:59.022Z,101676.19
2022-08-28T19:01:25.838Z,101611.97
2022-08-28T19:03:54.457Z,101667.13
2022-08-28T19:06:21.084Z,101678.88
2022-08-28T19:08:47.479Z,101635.31
2022-08-28T19:11:14.433Z,101682.63
2022-08-28T19:13:41.737Z,101666.91
2022-08-28T19:16:09.315Z,101684.22
2022-08-28T19:18:36.243Z,101633.38
2022-08-28T19:21:08.848Z,101696.03
2022-08-28T19:23:35.731Z,101695.19
2022-08-28T19:26:02.623Z,101662.88
2022-08-28T19:28:29.140Z,101652.38
2022-08-28T19:30:55.632Z,101597.53
2022-08-28T19:33:22.157Z,101663.53
2022-08-28T19:35:48.646Z,101675.34
2022-08-28T19:38:15.288Z,101653.00
2022-08-28T19:40:42.272Z,101685.13
2022-08-28T19:43:10.659Z,101704.03
2022-08-28T19:45:44.825Z,101620.59
2022-08-28T19:48:11.877Z,101644.09
2022-08-28T19:50:39.044Z,101638.03
2022-08-28T19:53:06.011Z,101712.53
2022-08-28T19:55:32.785Z,101653.03
2022-08-28T19:57:59.595Z,101672.78
2022-08-28T20:00:29.446Z,101717.63
2022-08-28T20:02:56.317Z,101693.09
2022-08-28T20:05:23.018Z,101654.59
2022-08-28T20:07:49.442Z,101710.84
2022-08-28T20:10:17.074Z,101720.19
2022-08-28T20:12:48.335Z,101736.44
2022-08-28T20:15:16.111Z,101750.25
2022-08-28T20:17:43.678Z,101742.59
2022-08-28T20:20:12.131Z,101740.97
2022-08-28T20:22:38.607Z,101742.44
2022-08-28T20:25:07.252Z,101584.25
2022-08-28T20:27:33.835Z,101696.34
2022-08-28T20:30:09.333Z,101756.03
2022-08-28T20:32:40.288Z,101663.91
2022-08-28T20:35:09.828Z,101769.53
2022-08-28T20:37:44.649Z,101726.63
2022-08-28T20:40:15.818Z,101755.69
2022-08-28T20:42:42.698Z,101725.75
2022-08-28T20:45:09.828Z,101744.28
2022-08-28T20:47:36.653Z,101707.25
2022-08-28T20:50:03.912Z,101706.34
2022-08-28T20:52:30.321Z,101758.25
2022-08-28T20:54:58.010Z,101769.03
2022-08-28T20:57:24.966Z,101745.00
2022-08-28T20:59:52.247Z,101729.22
2022-08-28T21:02:21.697Z,101677.31
2022-08-28T21:04:49.060Z,101781.50
2022-08-28T21:07:17.390Z,101708.66
2022-08-28T21:10:05.259Z,101737.59
2022-08-28T21:12:31.477Z,101750.88
2022-08-28T21:14:58.059Z,101748.78
2022-08-28T21:17:29.371Z,101803.00
2022-08-28T21:20:03.124Z,101741.22
2022-08-28T21:22:31.296Z,101808.25
2022-08-28T21:24:57.693Z,101800.66
2022-08-28T21:27:24.819Z,101740.34
2022-08-28T21:29:51.252Z,101737.91
2022-08-28T21:32:17.930Z,101764.34
2022-08-28T21:34:44.404Z,101805.00
2022-08-28T21:37:11.054Z,101705.31
2022-08-28T21:39:37.478Z,101770.69
2022-08-28T21:42:03.848Z,101777.09
2022-08-28T21:44:30.344Z,101762.22
2022-08-28T21:46:58.629Z,101823.53
2022-08-28T21:49:25.171Z,101804.97
2022-08-28T21:51:51.525Z,101662.88
2022-08-28T21:54:19.423Z,101824.88
2022-08-28T21:56:46.228Z,101823.34
2022-08-28T21:59:12.688Z,101832.34
2022-08-28T22:01:39.097Z,101755.31
2022-08-28T22:04:05.526Z,101688.22
2022-08-28T22:06:33.319Z,101833.72
2022-08-28T22:09:00.000Z,101838.69
2022-08-28T22:11:27.104Z,101831.03
2022-08-28T22:13:55.281Z,101789.00
2022-08-28T22:16:21.839Z,101791.31
2022-08-28T22:18:48.330Z,101678.31
2022-08-28T22:21:36.321Z,101788.03
2022-08-28T22:24:03.256Z,101774.38
2022-08-28T22:26:29.770Z,101612.34
2022-08-28T22:28:57.353Z,101841.84
2022-08-28T22:31:24.583Z,101776.22
2022-08-28T22:33:52.086Z,101833.63
2022-08-28T22:36:20.591Z,101832.16
2022-08-28T22:38:53.198Z,101771.88
2022-08-28T22:41:20.544Z,101790.47
2022-08-28T22:43:49.684Z,101822.31
2022-08-28T22:46:17.214Z,101830.63
2022-08-28T22:48:43.678Z,101825.59
2022-08-28T22:51:18.196Z,101826.50
2022-08-28T22:53:46.692Z,101829.34
2022-08-28T22:56:14.222Z,101729.50
2022-08-28T22:58:41.661Z,101758.69
2022-08-28T23:01:12.370Z,101830.06
2022-08-28T23:03:39.917Z,101777.09
2022-08-28T23:06:06.650Z,101805.31
2022-08-28T23:08:34.137Z,101794.88
2022-08-28T23:11:01.189Z,101789.16
2022-08-28T23:13:28.422Z,101756.91
2022-08-28T23:15:54.901Z,101830.47
2022-08-28T23:18:21.420Z,101808.81
2022-08-28T23:20:50.742Z,101815.13
2022-08-28T23:23:18.405Z,101837.50
2022-08-28T23:25:44.752Z,101837.81
2022-08-28T23:28:11.407Z,101795.44
2022-08-28T23:30:38.963Z,101687.63
2022-08-28T23:33:08.566Z,101833.03
2022-08-28T23:35:35.471Z,101839.88
2022-08-28T23:38:01.843Z,101856.81
2022-08-28T23:40:30.394Z,101844.69
2022-08-28T23:42:57.960Z,101839.72
2022-08-28T23:45:26.247Z,101848.63
2022-08-28T23:47:54.089Z,101781.09
2022-08-28T23:50:22.306Z,101754.78
2022-08-28T23:52:49.377Z,101834.16
2022-08-28T23:55:18.652Z,101841.47
2022-08-28T23:57:45.856Z,101838.91
